Time;durP1;ratioP1;P1;durP2;ratioP2;P2;SDS_P1;SDS_P2;PMS_P1;PMS_P2;Temp;Humidity;BMP_temperature;BMP_pressure;BME280_temperature;BME280_humidity;BME280_pressure;Samples;Min_cycle;Max_cycle;Signal;HPM_P1;HPM_P2
2023/08/10 00:00:24;;;;;;;5.40;4.83;;;11.10;99.90;;;10.51;100.00;98282.16;4950289;28;20459;-77
2023/08/10 00:02:55;;;;;;;6.47;5.10;;;11.00;99.90;;;9.97;100.00;98220.00;4949429;28;20458;-77
2023/08/10 00:05:22;;;;;;;5.37;4.87;;;10.90;99.90;;;10.50;100.00;98323.72;4945090;29;20473;-76
2023/08/10 00:07:49;;;;;;;5.50;5.00;;;10.80;99.90;;;10.42;100.00;98323.91;4960913;28;20941;-76
2023/08/10 00:10:17;;;;;;;7.10;4.67;;;10.70;99.90;;;10.33;100.00;98325.94;4942719;29;20465;-75
2023/08/10 00:12:45;;;;;;;6.27;4.77;;;10.60;99.90;;;10.28;100.00;98323.03;4951605;28;20481;-76
2023/08/10 00:15:12;;;;;;;6.87;5.47;;;10.60;99.90;;;10.24;100.00;98327.19;4948027;29;20461;-76
2023/08/10 00:17:39;;;;;;;5.13;4.63;;;10.60;99.90;;;10.12;100.00;98329.66;4946558;29;20457;-77
2023/08/10 00:20:11;;;;;;;6.00;5.17;;;10.50;99.90;;;10.07;100.00;98323.00;4947087;29;20576;-76
2023/08/10 00:22:40;;;;;;;6.10;5.50;;;10.40;99.90;;;9.88;100.00;98305.72;4957581;28;20455;-76
2023/08/10 00:25:08;;;;;;;5.83;5.00;;;10.30;99.90;;;9.86;100.00;98298.88;4944281;29;20453;-75
2023/08/10 00:27:38;;;;;;;6.30;5.20;;;10.30;99.90;;;10.18;100.00;98329.66;4962415;28;20457;-75
2023/08/10 00:30:08;;;;;;;4.77;3.93;;;10.40;99.90;;;10.15;100.00;98316.56;4944744;29;20463;-77
2023/08/10 00:32:35;;;;;;;7.37;4.73;;;10.50;99.90;;;10.17;100.00;98332.59;4940543;29;20462;-75
2023/08/10 00:35:04;;;;;;;6.30;5.40;;;10.40;99.90;;;9.97;100.00;98327.13;4940843;29;20942;-73
2023/08/10 00:37:33;;;;;;;5.50;4.90;;;10.30;99.90;;;9.96;100.00;98344.38;4947556;28;20456;-74
2023/08/10 00:40:00;;;;;;;5.07;4.57;;;10.30;99.90;;;9.95;100.00;98334.63;4941098;28;20469;-74
2023/08/10 00:42:28;;;;;;;15.87;5.07;;;10.30;99.90;;;9.81;100.00;98318.38;4954817;28;20461;-75
2023/08/10 00:44:55;;;;;;;5.33;4.80;;;10.20;99.90;;;9.93;100.00;98337.50;4947234;28;20453;-75
2023/08/10 00:47:23;;;;;;;6.73;4.97;;;10.20;99.90;;;9.94;100.00;98336.47;4966625;28;20477;-74
2023/08/10 00:49:51;;;;;;;7.20;5.20;;;10.20;99.90;;;10.02;100.00;98325.50;4955489;28;20498;-74
2023/08/10 00:52:18;;;;;;;5.60;4.30;;;10.30;99.90;;;9.95;100.00;98315.72;4941733;29;20965;-73
2023/08/10 00:54:47;;;;;;;5.77;5.20;;;10.40;99.90;;;9.92;100.00;98331.25;4961919;28;20465;-74
2023/08/10 00:57:15;;;;;;;6.43;5.10;;;10.30;99.90;;;9.77;100.00;98325.19;4948208;29;20479;-74
2023/08/10 00:59:43;;;;;;;5.90;4.60;;;10.20;99.90;;;9.88;100.00;98346.22;4943009;28;20465;-74
2023/08/10 01:02:11;;;;;;;6.57;5.10;;;10.20;99.90;;;9.62;100.00;98328.88;4940050;28;20468;-75
2023/08/10 01:04:39;;;;;;;5.70;5.10;;;10.10;99.90;;;9.77;100.00;98352.19;4943458;29;20460;-75
2023/08/10 01:07:15;;;;;;;6.63;5.20;;;10.10;99.90;;;9.73;100.00;98351.78;4940524;28;20466;-75
2023/08/10 01:09:53;;;;;;;5.50;4.47;;;10.10;99.90;;;9.58;100.00;98327.63;4951908;28;20476;-73
2023/08/10 01:12:32;;;;;;;5.07;4.57;;;10.20;99.90;;;9.66;100.00;98345.50;4950385;29;20459;-74
2023/08/10 01:15:06;;;;;;;5.60;3.97;;;10.10;99.90;;;9.28;100.00;98311.72;4945464;29;20457;-74
2023/08/10 01:17:40;;;;;;;5.97;4.77;;;9.90;99.90;;;8.96;100.00;98235.88;4949519;28;20467;-75
2023/08/10 01:20:11;;;;;;;5.03;4.50;;;10.00;99.90;;;9.59;100.00;98350.88;4947365;28;20487;-75
2023/08/10 01:22:52;;;;;;;4.80;4.37;;;10.00;99.90;;;9.48;100.00;98349.59;4949194;28;20470;-75
2023/08/10 01:25:22;;;;;;;5.50;4.10;;;9.80;99.90;;;9.41;100.00;98350.59;4938089;29;20462;-75
2023/08/10 01:27:50;;;;;;;4.90;4.50;;;9.80;99.90;;;9.41;100.00;98350.59;4956375;28;20465;-74
2023/08/10 01:30:18;;;;;;;5.53;4.60;;;9.70;99.90;;;9.45;100.00;98351.84;4947530;29;20481;-75
2023/08/10 01:32:45;;;;;;;8.70;4.20;;;9.80;99.90;;;9.39;100.00;98349.94;4959343;28;20513;-76
2023/08/10 01:35:12;;;;;;;4.50;4.10;;;9.80;99.90;;;9.21;100.00;98316.25;4940677;29;20476;-75
2023/08/10 01:37:40;;;;;;;3.70;3.40;;;9.70;99.90;;;9.42;100.00;98353.09;4943552;29;20503;-75
2023/08/10 01:40:12;;;;;;;4.57;4.17;;;9.70;99.90;;;9.31;100.00;98340.16;4945574;28;20454;-76
2023/08/10 01:42:45;;;;;;;4.73;4.33;;;9.70;99.90;;;9.37;100.00;98360.09;4946127;29;20648;-75
2023/08/10 01:45:13;;;;;;;4.50;4.10;;;9.70;99.90;;;9.27;100.00;98345.13;4945453;29;21033;-74
2023/08/10 01:47:46;;;;;;;4.40;3.70;;;9.70;99.90;;;9.30;100.00;98366.28;4937499;29;20458;-75
2023/08/10 01:50:18;;;;;;;4.43;4.10;;;9.60;99.90;;;9.36;100.00;98370.06;4952712;29;21255;-76
2023/08/10 01:52:51;;;;;;;4.47;3.93;;;9.70;99.90;;;9.37;100.00;98366.31;4949912;28;20468;-75
2023/08/10 01:55:19;;;;;;;17.03;4.40;;;9.70;99.90;;;9.42;100.00;98373.81;4961422;28;20469;-75
2023/08/10 01:57:49;;;;;;;4.27;3.87;;;9.70;99.90;;;9.41;100.00;98367.59;4945081;29;20531;-75
2023/08/10 02:00:16;;;;;;;4.17;3.60;;;9.70;99.90;;;9.41;100.00;98366.75;4944327;29;21338;-73
2023/08/10 02:02:46;;;;;;;5.30;4.03;;;9.70;99.90;;;9.31;100.00;98362.56;4944838;29;20472;-75
2023/08/10 02:05:13;;;;;;;3.87;3.47;;;9.70;99.90;;;9.34;100.00;98374.81;4944531;29;20466;-73
2023/08/10 02:07:42;;;;;;;4.53;4.10;;;9.70;99.90;;;9.26;100.00;98356.94;4945487;29;20472;-73
2023/08/10 02:10:10;;;;;;;3.90;3.60;;;9.70;99.90;;;9.46;100.00;98375.94;4946491;29;20568;-74
2023/08/10 02:12:38;;;;;;;4.50;4.10;;;9.80;99.90;;;9.49;100.00;98380.09;4939613;29;20582;-74
2023/08/10 02:15:08;;;;;;;4.57;4.10;;;9.80;99.90;;;9.45;100.00;98368.03;4944020;29;20959;-73
2023/08/10 02:17:36;;;;;;;3.97;3.30;;;9.80;99.90;;;9.43;100.00;98359.31;4949960;29;20819;-74
2023/08/10 02:20:11;;;;;;;4.20;3.77;;;9.80;99.90;;;9.12;100.00;98347.09;4943636;29;20463;-74
2023/08/10 02:22:41;;;;;;;6.87;3.87;;;9.80;99.90;;;9.31;100.00;98354.47;4945222;28;20454;-73
2023/08/10 02:25:10;;;;;;;5.83;4.20;;;9.80;99.90;;;9.16;100.00;98351.06;4946909;28;20479;-73
2023/08/10 02:27:37;;;;;;;8.37;4.13;;;9.80;99.90;;;9.04;100.00;98358.88;4944086;29;20468;-74
2023/08/10 02:30:07;;;;;;;7.60;4.07;;;9.70;99.90;;;9.00;100.00;98366.50;4960663;28;20491;-73
2023/08/10 02:32:36;;;;;;;6.43;4.67;;;9.60;99.90;;;9.01;100.00;98362.78;4940442;29;20466;-73
2023/08/10 02:35:04;;;;;;;5.30;4.70;;;9.60;99.90;;;9.02;100.00;98345.59;4944064;29;20488;-73
2023/08/10 02:37:32;;;;;;;5.13;4.30;;;9.60;99.90;;;8.99;100.00;98354.06;4944225;28;21255;-74
2023/08/10 02:39:59;;;;;;;3.87;3.57;;;9.50;99.90;;;9.00;100.00;98358.41;4945995;29;20784;-74
2023/08/10 02:42:27;;;;;;;5.10;4.60;;;9.50;99.90;;;8.60;100.00;98302.41;4944767;29;20454;-74
2023/08/10 02:44:54;;;;;;;4.93;4.37;;;9.50;99.90;;;8.88;100.00;98371.63;4942500;29;20546;-73
2023/08/10 02:47:23;;;;;;;4.87;4.30;;;9.40;99.90;;;8.84;100.00;98361.41;4943933;29;20616;-73
2023/08/10 02:49:51;;;;;;;5.33;4.33;;;9.40;99.90;;;8.66;100.00;98333.09;4941851;28;21039;-74
2023/08/10 02:52:18;;;;;;;8.27;4.20;;;9.40;99.90;;;8.92;100.00;98367.50;4943849;28;20458;-75
2023/08/10 02:54:45;;;;;;;5.27;4.77;;;9.40;99.90;;;8.21;100.00;98256.06;4959610;28;20463;-75
2023/08/10 02:57:13;;;;;;;5.50;5.00;;;9.40;99.90;;;8.88;100.00;98373.50;4962717;28;20520;-74
2023/08/10 02:59:40;;;;;;;9.10;5.27;;;9.40;99.90;;;9.67;100.00;98366.06;4940091;28;20472;-74
2023/08/10 03:02:07;;;;;;;7.70;5.47;;;10.00;99.90;;;9.27;100.00;98350.50;4939813;29;20466;-74
2023/08/10 03:04:36;;;;;;;12.83;5.87;;;10.10;99.90;;;9.23;100.00;98370.81;4951943;28;20455;-75
2023/08/10 03:07:03;;;;;;;4.83;4.30;;;9.80;99.90;;;9.14;100.00;98364.75;4956189;28;20892;-72
2023/08/10 03:09:31;;;;;;;5.60;4.47;;;9.80;99.90;;;9.16;100.00;98348.34;4948189;29;20598;-73
2023/08/10 03:11:59;;;;;;;6.07;4.40;;;9.70;99.90;;;9.56;100.00;98364.75;4939989;29;20477;-73
2023/08/10 03:14:26;;;;;;;7.67;4.77;;;10.00;99.90;;;9.20;100.00;98287.66;4941669;29;20465;-74
2023/08/10 03:16:54;;;;;;;5.73;5.13;;;10.20;99.90;;;9.50;100.00;98373.66;4938853;29;20474;-74
2023/08/10 03:19:21;;;;;;;8.60;5.00;;;10.10;99.90;;;9.83;100.00;98362.19;4946240;29;20447;-72
2023/08/10 03:21:50;;;;;;;5.10;4.23;;;10.30;99.90;;;9.73;100.00;98359.03;4940060;29;20462;-73
2023/08/10 03:24:17;;;;;;;19.97;6.40;;;10.10;99.90;;;9.40;100.00;98373.19;4937006;29;20459;-73
2023/08/10 03:26:44;;;;;;;7.30;4.93;;;10.00;99.90;;;8.88;100.00;98335.75;4946447;29;20463;-72
2023/08/10 03:29:12;;;;;;;6.87;4.80;;;9.80;99.90;;;8.71;100.00;98335.22;4943894;29;20488;-73
2023/08/10 03:31:39;;;;;;;10.40;6.63;;;9.60;99.90;;;8.68;100.00;98357.97;4962887;28;20889;-74
2023/08/10 03:34:06;;;;;;;7.30;5.73;;;9.50;99.90;;;8.77;100.00;98364.91;4943769;28;20512;-75
2023/08/10 03:36:35;;;;;;;16.50;6.60;;;9.40;99.90;;;8.83;100.00;98389.38;4948227;29;20465;-74
2023/08/10 03:39:04;;;;;;;10.43;6.33;;;9.40;99.90;;;8.59;100.00;98359.16;4953708;29;20469;-75
2023/08/10 03:41:31;;;;;;;11.83;6.60;;;9.30;99.90;;;8.58;100.00;98355.63;4965175;28;20496;-76
2023/08/10 03:43:58;;;;;;;13.20;6.87;;;9.30;99.90;;;8.23;100.00;98304.34;4945156;29;20472;-72
2023/08/10 03:46:25;;;;;;;12.30;7.00;;;9.30;99.90;;;8.35;100.00;98312.72;4948881;28;20461;-73
2023/08/10 03:48:53;;;;;;;9.90;6.63;;;9.30;99.90;;;8.74;100.00;98392.25;4942208;29;20465;-73
2023/08/10 03:51:20;;;;;;;10.53;7.00;;;9.20;99.90;;;8.30;100.00;98317.88;4942665;29;20462;-73
2023/08/10 03:53:48;;;;;;;10.57;6.23;;;9.30;99.90;;;8.72;100.00;98385.38;4941765;29;20467;-72
2023/08/10 03:56:17;;;;;;;16.60;6.47;;;9.30;99.90;;;8.89;100.00;98380.53;4944318;29;20566;-73
2023/08/10 03:58:44;;;;;;;7.40;5.60;;;9.30;99.90;;;8.95;100.00;98349.25;4944037;29;20466;-73
2023/08/10 04:01:11;;;;;;;6.17;5.13;;;9.60;99.90;;;9.84;100.00;98387.28;4942792;28;21018;-72
2023/08/10 04:03:38;;;;;;;9.00;6.00;;;10.00;99.90;;;9.94;100.00;98365.34;4943043;28;20490;-73
2023/08/10 04:06:06;;;;;;;7.17;6.17;;;10.40;99.90;;;9.95;100.00;98386.72;4947307;28;20465;-73
2023/08/10 04:08:33;;;;;;;8.17;6.00;;;10.40;99.90;;;9.64;100.00;98351.13;4940392;29;20465;-73
2023/08/10 04:11:00;;;;;;;6.57;5.20;;;10.30;99.90;;;9.63;100.00;98381.81;4946448;29;20633;-72
2023/08/10 04:13:29;;;;;;;4.60;4.20;;;10.10;99.90;;;9.45;100.00;98393.13;4942674;29;20451;-73
2023/08/10 04:15:57;;;;;;;5.17;4.67;;;9.90;99.90;;;9.29;100.00;98391.59;4940731;29;20951;-73
2023/08/10 04:18:24;;;;;;;4.27;3.87;;;9.70;99.90;;;9.11;100.00;98383.19;4938660;29;20865;-72
2023/08/10 04:20:51;;;;;;;6.03;4.57;;;9.60;99.90;;;9.20;100.00;98406.28;4937981;29;20470;-72
2023/08/10 04:23:19;;;;;;;5.80;3.93;;;9.60;99.90;;;9.17;100.00;98420.13;4944309;29;20585;-74
2023/08/10 04:25:46;;;;;;;6.07;4.50;;;9.60;99.90;;;8.88;100.00;98390.47;4963386;28;20805;-74
2023/08/10 04:28:14;;;;;;;4.80;4.23;;;9.50;99.90;;;9.05;100.00;98415.28;4962585;28;20460;-74
2023/08/10 04:30:43;;;;;;;10.03;4.67;;;9.50;99.90;;;8.78;100.00;98390.81;4945058;28;20473;-74
2023/08/10 04:33:10;;;;;;;5.03;4.30;;;9.50;99.90;;;8.64;100.00;98383.66;4956919;28;20834;-73
2023/08/10 04:35:38;;;;;;;5.27;4.10;;;9.50;99.90;;;9.07;100.00;98426.69;4941274;29;20459;-72
2023/08/10 04:38:05;;;;;;;5.93;4.63;;;9.50;99.90;;;8.98;100.00;98422.47;4942180;29;20482;-72
2023/08/10 04:40:32;;;;;;;6.90;4.73;;;9.60;99.90;;;9.17;100.00;98426.34;4944828;29;20454;-74
2023/08/10 04:43:00;;;;;;;5.80;4.63;;;9.60;99.90;;;9.23;100.00;98419.34;4942864;29;20481;-74
2023/08/10 04:45:27;;;;;;;5.47;4.10;;;9.70;99.90;;;9.21;100.00;98433.00;4943035;29;20455;-75
2023/08/10 04:47:56;;;;;;;8.23;4.73;;;9.70;99.90;;;9.33;100.00;98433.31;4947305;28;20497;-73
2023/08/10 04:50:23;;;;;;;5.77;4.30;;;9.80;99.90;;;9.33;100.00;98437.88;4945668;29;20484;-75
2023/08/10 04:52:51;;;;;;;4.70;4.30;;;9.80;99.90;;;9.53;100.00;98429.91;4946951;29;20466;-73
2023/08/10 04:55:20;;;;;;;4.20;3.73;;;10.00;99.90;;;9.76;99.75;98431.47;4949419;28;20467;-72
2023/08/10 04:57:47;;;;;;;4.00;3.70;;;10.20;99.90;;;10.52;97.53;98439.66;4962737;28;20582;-73
2023/08/10 05:00:15;;;;;;;4.60;4.20;;;10.90;99.90;;;11.11;93.57;98440.75;4941416;28;20461;-74
2023/08/10 05:02:43;;;;;;;4.37;3.97;;;11.60;99.80;;;11.45;88.80;98433.44;4945057;28;20460;-73
2023/08/10 05:05:12;;;;;;;4.40;4.00;;;12.00;94.40;;;11.51;88.46;98441.75;4940555;29;20497;-75
2023/08/10 05:07:39;;;;;;;4.67;3.53;;;12.40;91.80;;;12.02;87.07;98441.00;4948129;29;20549;-74
2023/08/10 05:10:10;;;;;;;6.73;4.63;;;12.70;91.40;;;12.05;84.72;98445.16;4952851;28;20481;-75
2023/08/10 05:12:38;;;;;;;3.30;3.00;;;13.20;89.80;;;12.26;84.54;98438.59;4957165;28;20457;-74
2023/08/10 05:15:09;;;;;;;4.67;3.53;;;13.40;89.10;;;12.69;82.84;98404.59;4938784;29;20479;-74
2023/08/10 05:17:37;;;;;;;3.00;2.73;;;13.70;89.50;;;12.71;80.32;98437.72;4941103;29;20468;-74
2023/08/10 05:20:10;;;;;;;8.77;3.33;;;13.90;87.50;;;13.56;80.39;98432.84;4938758;29;20533;-73
2023/08/10 05:22:40;;;;;;;3.03;2.83;;;14.40;88.70;;;14.17;77.34;98438.41;4935401;28;20506;-73
2023/08/10 05:25:09;;;;;;;7.33;3.27;;;14.90;86.80;;;14.69;75.95;98431.66;4940208;29;20482;-72
2023/08/10 05:27:36;;;;;;;4.10;3.07;;;15.30;86.80;;;15.09;71.29;98442.97;4938071;29;21084;-74
2023/08/10 05:30:08;;;;;;;3.47;2.87;;;15.70;83.90;;;14.98;71.52;98437.31;4936413;29;20486;-73
2023/08/10 05:32:36;;;;;;;3.50;3.20;;;15.90;83.00;;;15.19;69.37;98445.97;4933969;29;20928;-75
2023/08/10 05:35:06;;;;;;;5.13;3.03;;;15.90;81.90;;;14.48;70.22;98448.47;4951684;28;20467;-74
2023/08/10 05:37:34;;;;;;;5.77;2.63;;;15.70;80.70;;;13.82;71.49;98402.94;4945167;29;20978;-74
2023/08/10 05:40:09;;;;;;;3.43;3.13;;;15.40;80.70;;;14.25;70.88;98452.75;4932308;29;20954;-74
2023/08/10 05:42:37;;;;;;;2.83;2.53;;;15.60;80.60;;;14.03;72.92;98401.63;4941041;29;20953;-72
2023/08/10 05:45:06;;;;;;;3.03;2.73;;;15.50;82.20;;;14.82;71.09;98454.31;4938701;29;20613;-75
2023/08/10 05:47:34;;;;;;;3.43;2.80;;;15.60;82.30;;;14.00;71.87;98453.69;4940628;29;20585;-76
2023/08/10 05:50:01;;;;;;;5.37;3.13;;;15.40;80.40;;;14.30;71.00;98451.00;4943158;28;20481;-74
2023/08/10 05:52:29;;;;;;;3.20;3.00;;;15.50;80.60;;;14.21;72.06;98454.28;4943341;29;20450;-74
2023/08/10 05:54:57;;;;;;;5.57;2.90;;;15.50;80.50;;;14.17;70.86;98388.69;4961570;28;20465;-75
2023/08/10 05:57:25;;;;;;;3.43;3.13;;;15.50;81.00;;;15.16;69.64;98460.06;4949062;28;20528;-76
2023/08/10 05:59:54;;;;;;;3.90;3.50;;;15.90;81.50;;;15.86;66.68;98458.41;4936924;29;20469;-74
2023/08/10 06:02:21;;;;;;;7.87;2.80;;;16.30;80.00;;;15.18;66.72;98457.91;4930246;29;20498;-79
2023/08/10 06:04:49;;;;;;;3.53;2.57;;;16.40;78.30;;;14.86;68.88;98459.06;4951971;29;20531;-78
2023/08/10 06:07:16;;;;;;;6.13;3.17;;;15.90;79.10;;;14.70;69.11;98471.38;4941903;29;20899;-78
2023/08/10 06:09:44;;;;;;;5.20;2.97;;;15.70;79.50;;;13.87;72.37;98465.53;4950027;28;20520;-78
2023/08/10 06:12:12;;;;;;;2.87;2.67;;;14.90;80.40;;;13.44;75.35;98464.50;4945987;29;20962;-78
2023/08/10 06:14:41;;;;;;;3.23;3.00;;;14.30;82.50;;;12.99;77.02;98466.31;4942504;28;20462;-80
2023/08/10 06:17:08;;;;;;;3.30;2.77;;;13.80;84.00;;;12.70;79.42;98468.59;4948759;29;20489;-85
2023/08/10 06:19:35;;;;;;;3.80;3.30;;;13.40;85.80;;;12.75;79.37;98476.09;4949206;29;20453;-85
2023/08/10 06:22:03;;;;;;;5.83;3.03;;;13.30;86.60;;;12.46;79.63;98413.28;4946095;29;20457;-84
2023/08/10 06:24:30;;;;;;;3.63;3.03;;;13.30;87.60;;;12.70;79.99;98473.16;4947033;29;20469;-80
2023/08/10 06:26:59;;;;;;;3.00;2.80;;;13.20;87.50;;;12.50;81.48;98465.16;4947859;29;20475;-79
2023/08/10 06:29:27;;;;;;;4.80;3.70;;;13.20;88.80;;;12.40;82.00;98446.66;4953248;29;20524;-81
2023/08/10 06:31:56;;;;;;;5.50;3.30;;;13.10;89.10;;;12.79;81.87;98481.88;4951432;29;20763;-78
2023/08/10 06:34:23;;;;;;;11.23;3.90;;;13.20;89.90;;;12.56;83.34;98481.38;4948961;29;20473;-81
2023/08/10 06:36:52;;;;;;;4.30;3.13;;;13.10;90.00;;;12.59;82.48;98499.09;4948407;29;20539;-79
2023/08/10 06:39:19;;;;;;;4.67;3.00;;;13.10;90.00;;;12.88;80.60;98486.81;4942288;28;20458;-79
2023/08/10 06:41:47;;;;;;;4.37;3.20;;;13.20;89.80;;;12.92;81.96;98492.63;4940405;29;20462;-81
2023/08/10 06:44:14;;;;;;;7.30;3.30;;;13.30;90.10;;;13.13;80.93;98494.16;4932799;28;20469;-82
2023/08/10 06:46:42;;;;;;;3.40;3.10;;;13.50;89.60;;;12.95;80.67;98492.19;4943505;29;21004;-85
2023/08/10 06:49:11;;;;;;;5.27;3.33;;;13.50;89.10;;;13.10;81.54;98494.59;4940701;28;20478;-83
2023/08/10 06:51:39;;;;;;;6.03;3.40;;;13.60;89.70;;;13.20;81.01;98494.09;4947356;29;20480;-85
2023/08/10 06:54:06;;;;;;;3.80;3.50;;;13.60;89.30;;;13.21;80.95;98473.25;4949821;29;20468;-84
2023/08/10 06:56:33;;;;;;;3.60;3.30;;;13.70;89.50;;;13.42;80.24;98497.25;4951886;29;20458;-82
2023/08/10 06:59:02;;;;;;;4.93;2.97;;;13.80;89.40;;;13.63;79.34;98497.13;4959681;28;20449;-81
2023/08/10 07:01:29;;;;;;;4.50;3.60;;;14.00;89.10;;;13.64;79.05;98509.63;4966070;28;20481;-80
2023/08/10 07:03:56;;;;;;;3.87;3.57;;;14.00;88.50;;;13.86;78.08;98496.47;4973309;28;20473;-83
2023/08/10 07:06:25;;;;;;;5.20;4.53;;;14.20;88.50;;;13.83;79.37;98508.59;4978721;28;20453;-84
2023/08/10 07:08:53;;;;;;;7.33;3.60;;;14.30;88.50;;;13.85;79.28;98501.06;4953556;28;20496;-83
2023/08/10 07:11:20;;;;;;;4.30;3.50;;;14.30;88.50;;;13.86;78.96;98519.00;4962318;28;20516;-81
2023/08/10 07:13:48;;;;;;;3.97;3.63;;;14.30;88.20;;;13.54;77.88;98453.16;4950165;28;20949;-84
2023/08/10 07:16:16;;;;;;;4.57;3.40;;;14.40;88.00;;;14.12;77.42;98519.78;4958619;28;20472;-84
2023/08/10 07:18:44;;;;;;;3.77;3.33;;;14.50;87.80;;;14.20;77.61;98509.69;4946326;28;20449;-82
2023/08/10 07:21:11;;;;;;;4.27;3.83;;;14.50;88.00;;;14.40;76.82;98499.41;4959663;28;20851;-83
2023/08/10 07:23:39;;;;;;;4.13;3.73;;;14.80;87.80;;;14.64;76.64;98520.41;4943794;29;20470;-80
2023/08/10 07:26:08;;;;;;;3.80;3.50;;;14.90;87.60;;;14.45;76.81;98523.19;4939961;29;20467;-83
2023/08/10 07:28:36;;;;;;;4.27;3.67;;;15.00;87.30;;;14.73;75.82;98519.09;4941972;29;20476;-81
2023/08/10 07:31:04;;;;;;;4.17;3.60;;;15.10;87.20;;;14.58;74.99;98492.25;4948860;29;21074;-75
2023/08/10 07:33:31;;;;;;;8.33;4.17;;;15.10;86.30;;;14.71;74.94;98508.44;4943487;29;20540;-83
2023/08/10 07:35:59;;;;;;;5.20;3.77;;;15.20;86.50;;;14.93;74.24;98516.06;4951220;28;20475;-80
2023/08/10 07:38:27;;;;;;;4.00;3.57;;;15.20;86.20;;;14.84;74.07;98514.75;4942062;28;20970;-81
2023/08/10 07:40:55;;;;;;;4.23;3.67;;;15.20;85.90;;;15.06;73.79;98514.22;4948350;29;20465;-82
2023/08/10 07:43:23;;;;;;;4.77;3.50;;;15.40;85.90;;;15.06;72.98;98514.22;4948628;28;20460;-81
2023/08/10 07:45:50;;;;;;;4.90;3.80;;;15.50;85.50;;;15.26;72.43;98525.63;4935226;29;20566;-79
2023/08/10 07:48:18;;;;;;;5.07;4.03;;;15.50;85.30;;;15.54;70.87;98521.41;4939431;29;20468;-75
2023/08/10 07:50:46;;;;;;;5.80;3.87;;;15.70;84.70;;;15.79;71.31;98517.59;4944812;29;20494;-74
2023/08/10 07:53:14;;;;;;;6.13;3.57;;;15.90;85.00;;;16.06;70.65;98517.16;4947174;29;20472;-76
2023/08/10 07:55:42;;;;;;;3.60;3.30;;;16.20;84.90;;;16.22;68.73;98520.22;4940297;28;21228;-74
2023/08/10 07:58:10;;;;;;;4.23;3.50;;;16.40;83.80;;;16.33;69.06;98516.63;4939215;29;20454;-74
2023/08/10 08:00:38;;;;;;;4.37;3.97;;;16.60;83.80;;;16.31;67.95;98526.13;4956227;28;20463;-74
2023/08/10 08:03:08;;;;;;;4.33;3.57;;;16.70;82.80;;;16.40;67.67;98522.75;4938079;29;20474;-76
2023/08/10 08:05:37;;;;;;;4.63;3.00;;;16.70;82.60;;;16.58;66.12;98531.84;4941736;28;20469;-73
2023/08/10 08:08:06;;;;;;;6.40;3.20;;;16.80;82.00;;;16.60;65.71;98529.69;4934245;28;20459;-72
2023/08/10 08:10:33;;;;;;;8.07;3.37;;;16.80;81.60;;;16.62;65.26;98524.84;4940641;29;20492;-73
2023/08/10 08:13:02;;;;;;;4.40;3.70;;;16.90;81.00;;;16.62;65.16;98518.56;4938057;29;20506;-73
2023/08/10 08:15:31;;;;;;;3.83;3.43;;;16.90;80.90;;;16.80;65.09;98517.53;4929639;29;20955;-73
2023/08/10 08:18:48;;;;;;;5.33;3.90;;;17.00;80.90;;;16.92;64.04;98522.94;4941428;29;20477;-74
2023/08/10 08:21:18;;;;;;;6.20;3.20;;;17.10;79.90;;;17.06;63.84;98520.75;4934398;29;20456;-73
2023/08/10 08:23:46;;;;;;;7.43;6.13;;;17.30;80.00;;;17.18;63.08;98516.06;4939215;28;20460;-76
2023/08/10 08:26:15;;;;;;;6.00;3.40;;;17.40;79.60;;;17.31;62.87;98512.19;4938419;29;20504;-72
2023/08/10 08:28:43;;;;;;;3.77;3.47;;;17.50;79.30;;;16.57;63.40;98467.44;4955551;28;20459;-73
2023/08/10 08:31:11;;;;;;;5.80;3.70;;;17.40;78.70;;;17.01;64.26;98505.13;4938905;29;20480;-76
2023/08/10 08:33:39;;;;;;;3.40;3.10;;;17.40;79.50;;;17.15;64.74;98516.56;4932091;29;20452;-70
2023/08/10 08:36:07;;;;;;;4.10;3.60;;;17.50;80.10;;;17.16;64.15;98518.22;4938993;29;20463;-70
2023/08/10 08:38:34;;;;;;;4.13;3.37;;;17.50;79.60;;;17.45;62.46;98501.75;4937108;29;20479;-71
2023/08/10 08:41:05;;;;;;;6.77;3.13;;;17.60;78.90;;;17.29;62.18;98462.47;4939499;29;20830;-71
2023/08/10 08:43:33;;;;;;;3.03;2.73;;;17.70;78.60;;;17.69;62.60;98509.78;4944163;28;20472;-73
2023/08/10 08:46:03;;;;;;;3.93;2.80;;;17.90;79.00;;;17.87;61.55;98510.59;4939378;28;20471;-75
2023/08/10 08:48:32;;;;;;;4.60;3.23;;;18.10;78.40;;;17.83;61.53;98500.16;4945317;28;20468;-79
2023/08/10 08:50:59;;;;;;;4.30;3.07;;;18.10;78.00;;;17.92;60.16;98507.91;4939695;29;20511;-77
2023/08/10 08:53:27;;;;;;;3.60;3.10;;;18.20;77.20;;;17.99;60.48;98503.09;4936420;28;20461;-78
2023/08/10 08:55:54;;;;;;;3.37;3.07;;;18.20;77.10;;;18.07;58.96;98505.41;4954159;28;20499;-78
2023/08/10 08:58:22;;;;;;;3.80;3.27;;;18.30;76.00;;;18.19;58.96;98507.22;4938422;28;20455;-80
2023/08/10 09:00:52;;;;;;;7.77;3.00;;;18.40;76.10;;;18.48;57.47;98510.56;4941459;29;20461;-78
2023/08/10 09:03:21;;;;;;;3.60;2.90;;;18.60;75.10;;;18.40;56.74;98503.66;4944864;29;20510;-78
2023/08/10 09:05:50;;;;;;;2.73;2.50;;;18.70;73.90;;;18.53;56.84;98504.34;4940958;28;20472;-78
2023/08/10 09:08:19;;;;;;;3.07;2.60;;;18.70;73.80;;;18.67;57.15;98507.53;4942744;29;20466;-79
2023/08/10 09:10:48;;;;;;;5.90;3.10;;;18.80;74.20;;;18.71;54.16;98502.34;4943815;29;20482;-70
2023/08/10 09:13:18;;;;;;;5.83;2.80;;;18.90;71.70;;;18.76;54.55;98494.22;4940806;29;20533;-71
2023/08/10 09:15:46;;;;;;;6.13;2.70;;;19.00;71.40;;;18.56;55.20;98440.91;4943667;29;20470;-70
2023/08/10 09:18:14;;;;;;;4.03;2.63;;;19.00;72.10;;;18.69;55.16;98489.75;4940388;29;20499;-70
2023/08/10 09:20:41;;;;;;;3.80;2.80;;;19.10;71.40;;;18.54;55.09;98492.31;4942233;29;20456;-70
2023/08/10 09:23:10;;;;;;;5.60;2.63;;;18.90;71.10;;;18.66;55.04;98487.53;4936649;29;20485;-70
2023/08/10 09:25:40;;;;;;;2.87;2.17;;;18.90;71.00;;;18.71;54.68;98470.34;4934917;29;20464;-69
2023/08/10 09:28:12;;;;;;;6.00;2.70;;;19.00;70.80;;;19.00;53.22;98480.22;4939207;29;20461;-71
2023/08/10 09:30:41;;;;;;;2.57;2.37;;;19.10;69.60;;;19.10;53.19;98483.06;4951859;28;20461;-71
2023/08/10 09:33:08;;;;;;;3.87;2.20;;;19.20;69.50;;;19.14;53.39;98473.22;4938068;28;20463;-71
2023/08/10 09:35:36;;;;;;;3.20;2.53;;;19.30;69.70;;;19.33;51.91;98475.56;4953826;28;20453;-71
2023/08/10 09:38:04;;;;;;;2.60;2.03;;;19.50;68.30;;;19.45;47.82;98473.47;4947167;29;21088;-71
2023/08/10 09:40:33;;;;;;;2.30;2.10;;;19.60;64.60;;;19.60;47.31;98469.19;4936262;29;20528;-71
2023/08/10 09:43:00;;;;;;;2.23;1.90;;;19.70;63.10;;;19.65;47.82;98472.00;4948013;28;21017;-70
2023/08/10 09:45:28;;;;;;;1.93;1.80;;;19.80;63.30;;;19.66;46.68;98479.94;4943939;28;20491;-70
2023/08/10 09:47:55;;;;;;;2.00;1.90;;;19.80;62.10;;;19.68;46.18;98471.44;4950434;28;20457;-71
2023/08/10 09:50:23;;;;;;;3.90;2.50;;;19.80;61.30;;;19.78;46.74;98470.69;4952356;28;20462;-70
2023/08/10 09:52:52;;;;;;;2.43;1.70;;;19.90;61.50;;;20.03;45.81;98470.03;4940129;29;20574;-70
2023/08/10 09:55:19;;;;;;;2.13;1.93;;;20.10;61.20;;;19.80;46.62;98469.34;4952614;28;20466;-70
2023/08/10 09:57:49;;;;;;;1.83;1.73;;;20.10;60.60;;;19.87;46.90;98473.75;4956356;28;20459;-71
2023/08/10 10:00:19;;;;;;;1.87;1.77;;;20.10;61.20;;;19.93;46.09;98472.69;4951743;29;20843;-71
2023/08/10 10:02:47;;;;;;;2.17;1.93;;;20.00;60.20;;;20.15;45.28;98469.00;4948438;28;20549;-71
2023/08/10 10:05:17;;;;;;;2.00;1.53;;;20.20;59.90;;;20.19;45.12;98468.19;4936081;29;20459;-71
2023/08/10 10:07:46;;;;;;;2.20;1.20;;;20.30;59.20;;;20.41;43.77;98469.91;4936965;29;20985;-72
2023/08/10 10:10:16;;;;;;;1.70;1.60;;;20.50;58.40;;;20.38;43.25;98468.50;4938897;29;20514;-71
2023/08/10 10:12:49;;;;;;;2.30;1.60;;;20.50;57.60;;;20.33;45.79;98468.50;4946499;28;20486;-71
2023/08/10 10:15:17;;;;;;;1.63;1.53;;;20.50;58.80;;;20.28;44.28;98460.25;4966571;28;21020;-71
2023/08/10 10:17:50;;;;;;;2.23;1.53;;;20.50;58.10;;;20.42;42.13;98462.50;4942408;29;20459;-71
2023/08/10 10:20:18;;;;;;;2.60;1.83;;;20.50;56.30;;;20.36;42.83;98459.72;4948184;29;20515;-71
2023/08/10 10:22:46;;;;;;;3.20;2.03;;;20.60;56.30;;;20.39;42.92;98456.44;4934887;29;20856;-71
2023/08/10 10:25:21;;;;;;;2.57;2.20;;;20.60;56.50;;;20.47;42.43;98462.50;4952725;29;20455;-71